createdAt,value
2023-02-13T00:00:35.304Z,9.20
2023-02-13T00:03:02.329Z,9.52
2023-02-13T00:05:29.124Z,9.20
2023-02-13T00:07:55.776Z,8.90
2023-02-13T00:10:22.741Z,8.63
2023-02-13T00:12:49.324Z,8.98
2023-02-13T00:15:15.974Z,9.45
2023-02-13T00:17:42.652Z,9.95
2023-02-13T00:20:11.522Z,8.85
2023-02-13T00:22:38.712Z,10.02
2023-02-13T00:25:07.039Z,9.13
2023-02-13T00:27:34.298Z,9.30
2023-02-13T00:30:01.077Z,9.35
2023-02-13T00:32:27.707Z,9.55
2023-02-13T00:34:54.344Z,9.35
2023-02-13T00:37:21.003Z,9.43
2023-02-13T00:39:47.673Z,10.15
2023-02-13T00:42:14.281Z,10.85
2023-02-13T00:44:40.896Z,10.52
2023-02-13T00:47:07.506Z,10.25
2023-02-13T00:49:34.144Z,11.32
2023-02-13T00:52:00.733Z,11.77
2023-02-13T00:54:27.302Z,11.40
2023-02-13T00:56:53.938Z,11.65
2023-02-13T00:59:20.504Z,10.93
2023-02-13T01:01:47.126Z,10.73
2023-02-13T01:04:13.760Z,7.25
2023-02-13T01:06:40.380Z,12.10
2023-02-13T01:09:07.020Z,11.35
2023-02-13T01:11:33.847Z,12.02
2023-02-13T01:14:00.897Z,11.68
2023-02-13T01:16:27.918Z,12.55
2023-02-13T01:18:54.549Z,11.82
2023-02-13T01:21:23.826Z,11.38
2023-02-13T01:23:51.582Z,12.48
2023-02-13T01:26:20.584Z,11.95
2023-02-13T01:28:47.142Z,12.10
2023-02-13T01:31:14.369Z,12.88
2023-02-13T01:33:41.122Z,11.25
2023-02-13T01:36:09.815Z,13.10
2023-02-13T01:38:36.507Z,12.13
2023-02-13T01:41:03.297Z,11.38
2023-02-13T01:44:25.355Z,13.32
2023-02-13T01:46:51.933Z,11.45
2023-02-13T01:49:26.049Z,12.00
2023-02-13T01:51:56.269Z,12.52
2023-02-13T01:54:31.181Z,12.70
2023-02-13T01:57:02.963Z,12.35
2023-02-13T01:59:34.605Z,11.45
2023-02-13T02:02:01.665Z,12.38
2023-02-13T02:04:38.797Z,7.65
2023-02-13T02:07:10.528Z,11.00
2023-02-13T02:09:40.694Z,11.95
2023-02-13T02:12:40.570Z,12.07
2023-02-13T02:15:08.589Z,12.13
2023-02-13T02:17:35.691Z,11.23
2023-02-13T02:20:30.279Z,11.68
2023-02-13T02:23:18.563Z,11.95
2023-02-13T02:26:04.375Z,11.93
2023-02-13T02:28:37.004Z,13.00
2023-02-13T02:31:22.166Z,12.63
2023-02-13T02:33:54.800Z,11.48
2023-02-13T02:36:49.617Z,9.60
2023-02-13T02:39:25.113Z,11.40
2023-02-13T02:42:03.584Z,10.18
2023-02-13T02:44:53.344Z,12.02
2023-02-13T02:47:50.670Z,12.75
2023-02-13T02:50:22.968Z,10.60
2023-02-13T02:53:04.759Z,12.40
2023-02-13T02:56:03.553Z,11.75
2023-02-13T02:59:07.542Z,12.52
2023-02-13T03:01:53.449Z,12.48
2023-02-13T03:04:49.806Z,12.43
2023-02-13T03:07:18.364Z,14.52
2023-02-13T03:10:16.078Z,12.15
2023-02-13T03:13:20.864Z,11.27
2023-02-13T03:16:10.006Z,11.23
2023-02-13T03:19:01.962Z,11.05
2023-02-13T03:22:23.721Z,12.75
2023-02-13T03:24:58.866Z,11.70
2023-02-13T03:27:55.816Z,12.68
2023-02-13T03:30:36.954Z,11.88
2023-02-13T03:33:15.716Z,13.18
2023-02-13T03:36:07.111Z,11.80
2023-02-13T03:38:46.622Z,11.32
2023-02-13T03:41:19.084Z,9.57
2023-02-13T03:44:20.813Z,11.35
2023-02-13T03:46:50.964Z,11.63
2023-02-13T03:49:43.665Z,12.50
2023-02-13T03:52:35.708Z,12.27
2023-02-13T03:55:31.523Z,8.77
2023-02-13T03:58:21.894Z,13.77
2023-02-13T04:00:54.195Z,9.65
2023-02-13T04:04:10.259Z,11.55
2023-02-13T04:06:40.637Z,12.07
2023-02-13T04:09:07.324Z,8.52
2023-02-13T04:11:41.795Z,10.82
2023-02-13T04:14:16.477Z,10.05
2023-02-13T04:16:48.568Z,13.32
2023-02-13T04:19:15.930Z,12.88
2023-02-13T04:21:42.887Z,12.50
2023-02-13T04:24:09.975Z,13.05
2023-02-13T04:26:39.707Z,13.10
2023-02-13T04:29:06.537Z,13.38
2023-02-13T04:31:33.657Z,9.80
2023-02-13T04:34:00.532Z,11.70
2023-02-13T04:36:27.258Z,8.18
2023-02-13T04:38:53.894Z,13.20
2023-02-13T04:41:20.552Z,12.15
2023-02-13T04:43:47.247Z,11.18
2023-02-13T04:46:13.986Z,11.32
2023-02-13T04:48:40.558Z,11.77
2023-02-13T04:51:07.219Z,8.93
2023-02-13T04:53:33.788Z,10.88
2023-02-13T04:56:00.460Z,9.82
2023-02-13T04:58:27.207Z,10.30
2023-02-13T05:00:53.918Z,9.82
2023-02-13T05:03:20.585Z,9.27
2023-02-13T05:05:49.262Z,10.90
2023-02-13T05:08:16.043Z,9.85
2023-02-13T05:10:42.597Z,9.82
2023-02-13T05:13:09.237Z,7.70
2023-02-13T05:15:35.906Z,9.30
2023-02-13T05:18:02.490Z,9.85
2023-02-13T05:20:29.037Z,10.35
2023-02-13T05:23:14.035Z,8.82
2023-02-13T05:25:42.090Z,9.57
2023-02-13T05:28:28.189Z,9.60
2023-02-13T05:30:55.029Z,9.07
2023-02-13T05:33:21.729Z,9.52
2023-02-13T05:35:48.461Z,9.50
2023-02-13T05:38:15.196Z,8.13
2023-02-13T05:40:41.759Z,10.35
2023-02-13T05:43:08.496Z,9.07
2023-02-13T05:45:35.166Z,9.55
2023-02-13T05:48:01.802Z,9.02
2023-02-13T05:50:28.640Z,10.27
2023-02-13T05:52:55.651Z,9.75
2023-02-13T05:55:22.263Z,8.50
2023-02-13T05:57:48.814Z,8.55
2023-02-13T06:00:16.203Z,9.93
2023-02-13T06:02:42.818Z,9.20
2023-02-13T06:05:09.535Z,9.38
2023-02-13T06:07:36.282Z,7.05
2023-02-13T06:10:02.920Z,8.95
2023-02-13T06:12:29.560Z,10.20
2023-02-13T06:14:56.170Z,8.30
2023-02-13T06:17:22.944Z,6.25
2023-02-13T06:19:49.655Z,9.90
2023-02-13T06:22:16.294Z,8.43
2023-02-13T06:24:50.707Z,8.70
2023-02-13T06:27:17.383Z,9.63
2023-02-13T06:29:44.007Z,6.47
2023-02-13T06:32:10.660Z,8.38
2023-02-13T06:34:37.286Z,8.68
2023-02-13T06:37:03.908Z,8.77
2023-02-13T06:39:41.363Z,9.20
2023-02-13T06:42:08.006Z,8.70
2023-02-13T06:44:34.628Z,10.07
2023-02-13T06:47:01.303Z,8.63
2023-02-13T06:49:27.908Z,9.65
2023-02-13T06:51:54.567Z,8.35
2023-02-13T06:54:24.648Z,8.10
2023-02-13T06:56:55.255Z,9.95
2023-02-13T06:59:21.904Z,11.48
2023-02-13T07:01:48.529Z,10.48
2023-02-13T07:04:15.163Z,9.82
2023-02-13T07:06:41.845Z,11.70
2023-02-13T07:09:08.668Z,10.52
2023-02-13T07:11:35.360Z,10.43
2023-02-13T07:14:01.983Z,11.55
2023-02-13T07:16:28.699Z,8.13
2023-02-13T07:18:55.367Z,10.93
2023-02-13T07:21:22.011Z,11.25
2023-02-13T07:23:48.636Z,10.55
2023-02-13T07:26:16.464Z,8.73
2023-02-13T07:28:43.179Z,9.90
2023-02-13T07:31:10.317Z,11.05
2023-02-13T07:33:37.216Z,10.55
2023-02-13T07:36:04.859Z,12.98
2023-02-13T07:38:32.310Z,11.75
2023-02-13T07:41:03.158Z,10.60
2023-02-13T07:43:30.503Z,10.45
2023-02-13T07:46:01.941Z,12.02
2023-02-13T07:48:29.330Z,11.23
2023-02-13T07:51:01.049Z,10.45
2023-02-13T07:53:27.705Z,6.68
2023-02-13T07:55:54.533Z,11.45
2023-02-13T07:58:21.331Z,11.38
2023-02-13T08:00:48.263Z,9.82
2023-02-13T08:03:14.878Z,11.57
2023-02-13T08:05:41.607Z,11.52
2023-02-13T08:08:08.298Z,10.60
2023-02-13T08:10:53.309Z,10.10
2023-02-13T08:13:20.154Z,10.60
2023-02-13T08:15:47.316Z,8.73
2023-02-13T08:18:13.965Z,10.50
2023-02-13T08:20:40.564Z,12.13
2023-02-13T08:23:10.751Z,10.27
2023-02-13T08:25:40.708Z,8.98
2023-02-13T08:28:07.425Z,8.88
2023-02-13T08:30:34.296Z,8.98
2023-02-13T08:33:00.953Z,11.05
2023-02-13T08:35:29.746Z,11.45
2023-02-13T08:38:01.280Z,8.60
2023-02-13T08:40:27.924Z,10.70
2023-02-13T08:43:01.246Z,7.50
2023-02-13T08:45:28.258Z,7.03
2023-02-13T08:47:58.590Z,8.00
2023-02-13T08:50:26.176Z,9.95
2023-02-13T08:52:53.313Z,8.68
2023-02-13T08:55:20.636Z,8.25
2023-02-13T08:57:47.405Z,8.32
2023-02-13T09:00:14.742Z,9.18
2023-02-13T09:02:41.739Z,8.55
2023-02-13T09:05:08.436Z,6.80
2023-02-13T09:07:35.063Z,8.27
2023-02-13T09:10:01.681Z,7.18
2023-02-13T09:12:28.341Z,7.35
2023-02-13T09:14:54.940Z,6.95
2023-02-13T09:17:21.604Z,6.25
2023-02-13T09:19:48.235Z,8.38
2023-02-13T09:22:17.218Z,6.93
2023-02-13T09:24:43.828Z,8.45
2023-02-13T09:27:10.514Z,7.25
2023-02-13T09:29:37.192Z,8.07
2023-02-13T09:32:05.651Z,8.55
2023-02-13T09:34:32.513Z,9.43
2023-02-13T09:36:59.109Z,8.00
2023-02-13T09:39:25.797Z,8.73
2023-02-13T09:41:54.442Z,7.82
2023-02-13T09:44:43.436Z,8.60
2023-02-13T09:47:36.276Z,8.90
2023-02-13T09:50:11.469Z,8.43
2023-02-13T09:52:39.456Z,7.78
2023-02-13T09:55:18.222Z,9.23
2023-02-13T09:58:06.286Z,9.23
2023-02-13T10:00:41.685Z,9.00
2023-02-13T10:03:31.364Z,8.57
2023-02-13T10:06:06.887Z,8.88
2023-02-13T10:08:55.128Z,8.75
2023-02-13T10:11:50.000Z,7.60
2023-02-13T10:14:29.135Z,7.15
2023-02-13T10:17:02.128Z,6.40
2023-02-13T10:19:37.692Z,6.50
2023-02-13T10:22:13.671Z,5.30
2023-02-13T10:24:47.557Z,4.88
2023-02-13T10:27:35.057Z,6.35
2023-02-13T10:30:25.813Z,7.57
2023-02-13T10:33:26.007Z,6.85
2023-02-13T10:36:10.809Z,6.30
2023-02-13T10:38:45.314Z,7.43
2023-02-13T10:41:23.137Z,6.32
2023-02-13T10:44:10.984Z,5.82
2023-02-13T10:46:59.556Z,4.82
2023-02-13T10:49:43.390Z,6.88
2023-02-13T10:52:31.409Z,5.45
2023-02-13T10:58:06.909Z,5.25
2023-02-13T11:00:55.358Z,5.47
2023-02-13T11:03:24.741Z,5.07
2023-02-13T11:05:52.874Z,4.75
2023-02-13T11:08:44.422Z,5.40
2023-02-13T11:11:38.694Z,6.30
2023-02-13T11:16:52.147Z,5.05
2023-02-13T11:19:22.435Z,5.63
2023-02-13T11:21:54.308Z,5.82
2023-02-13T11:24:26.868Z,6.15
2023-02-13T11:27:05.944Z,6.40
2023-02-13T11:29:35.394Z,5.30
2023-02-13T11:32:13.481Z,5.85
2023-02-13T11:34:40.148Z,6.70
2023-02-13T11:37:12.863Z,4.32
2023-02-13T11:39:41.625Z,5.78
2023-02-13T11:42:24.988Z,5.28
2023-02-13T11:45:04.879Z,6.00
2023-02-13T11:47:36.885Z,5.65
2023-02-13T11:50:05.388Z,5.15
2023-02-13T11:52:36.405Z,6.28
2023-02-13T11:55:06.749Z,5.68
2023-02-13T11:57:37.771Z,6.03
2023-02-13T12:00:33.991Z,5.45
2023-02-13T12:03:00.754Z,2.58
2023-02-13T12:05:28.588Z,4.35
2023-02-13T12:08:02.065Z,4.82
2023-02-13T12:10:34.030Z,3.95
2023-02-13T12:13:13.450Z,3.22
2023-02-13T12:15:41.580Z,4.05
2023-02-13T12:18:43.272Z,2.53
2023-02-13T12:21:47.253Z,3.10
2023-02-13T12:24:16.670Z,2.28
2023-02-13T12:26:48.416Z,1.85
2023-02-13T12:29:42.993Z,3.78
2023-02-13T12:32:22.295Z,3.25
2023-02-13T12:35:04.550Z,3.08
2023-02-13T12:37:31.003Z,3.00
2023-02-13T12:40:42.059Z,3.75
2023-02-13T12:43:27.502Z,3.03
2023-02-13T12:46:08.251Z,3.08
2023-02-13T12:49:09.264Z,3.38
2023-02-13T12:51:51.044Z,3.60
2023-02-13T12:54:23.797Z,3.00
2023-02-13T12:57:03.266Z,3.20
2023-02-13T12:59:40.519Z,4.10
2023-02-13T13:02:25.093Z,3.50
2023-02-13T13:05:27.441Z,3.95
2023-02-13T13:08:24.946Z,3.67
2023-02-13T13:11:17.582Z,4.15
2023-02-13T13:14:11.985Z,3.58
2023-02-13T13:17:02.600Z,4.85
2023-02-13T13:19:45.666Z,4.30
2023-02-13T13:22:21.147Z,3.92
2023-02-13T13:24:47.657Z,5.40
2023-02-13T13:27:44.265Z,4.10
2023-02-13T13:30:34.434Z,5.00
2023-02-13T13:33:18.035Z,4.97
2023-02-13T13:35:55.624Z,3.15
2023-02-13T13:38:39.882Z,3.92
2023-02-13T13:41:15.365Z,4.38
2023-02-13T13:44:03.114Z,4.85
2023-02-13T13:46:49.070Z,4.22
2023-02-13T13:49:45.011Z,4.50
2023-02-13T13:52:23.925Z,5.20
2023-02-13T13:54:54.256Z,5.45
2023-02-13T13:57:25.739Z,3.97
2023-02-13T14:00:03.649Z,3.95
2023-02-13T14:03:33.476Z,4.80
2023-02-13T14:06:06.298Z,3.45
2023-02-13T14:08:41.826Z,3.85
2023-02-13T14:11:43.103Z,3.10
2023-02-13T14:14:28.955Z,3.58
2023-02-13T14:16:57.910Z,3.35
2023-02-13T14:19:40.442Z,3.97
2023-02-13T14:22:19.295Z,4.15
2023-02-13T14:25:22.306Z,2.75
2023-02-13T14:28:03.243Z,2.90
2023-02-13T14:30:34.192Z,2.83
2023-02-13T14:33:22.110Z,3.10
2023-02-13T14:36:00.892Z,4.40
2023-02-13T14:38:28.126Z,4.13
2023-02-13T14:40:54.988Z,4.43
2023-02-13T14:43:33.980Z,4.10
2023-02-13T14:46:22.107Z,4.30
2023-02-13T14:51:54.207Z,4.85
2023-02-13T14:54:47.339Z,5.15
2023-02-13T14:57:29.523Z,4.68
2023-02-13T15:00:00.973Z,5.55
2023-02-13T15:02:31.631Z,5.80
2023-02-13T15:05:14.488Z,3.83
2023-02-13T15:07:57.773Z,5.10
2023-02-13T15:10:41.433Z,4.85
2023-02-13T15:13:24.849Z,5.15
2023-02-13T15:16:08.098Z,5.35
2023-02-13T15:18:52.406Z,5.60
2023-02-13T15:21:23.072Z,6.68
2023-02-13T15:23:52.555Z,5.43
2023-02-13T15:26:24.520Z,4.88
2023-02-13T15:29:17.363Z,5.75
2023-02-13T15:31:56.959Z,5.93
2023-02-13T15:34:28.609Z,5.18
2023-02-13T15:36:56.512Z,5.32
2023-02-13T15:39:28.611Z,6.03
2023-02-13T15:41:59.136Z,5.47
2023-02-13T15:44:34.210Z,5.15
2023-02-13T15:47:08.068Z,6.82
2023-02-13T15:49:39.544Z,6.35
2023-02-13T15:52:25.578Z,7.65
2023-02-13T15:54:54.583Z,6.88
2023-02-13T15:57:23.586Z,4.72
2023-02-13T15:59:52.333Z,6.75
2023-02-13T16:02:22.790Z,5.00
2023-02-13T16:04:54.700Z,6.93
2023-02-13T16:07:21.581Z,6.65
2023-02-13T16:09:48.331Z,5.43
2023-02-13T16:12:28.262Z,6.93
2023-02-13T16:14:56.417Z,6.38
2023-02-13T16:17:30.839Z,6.57
2023-02-13T16:20:01.871Z,6.53
2023-02-13T16:22:46.300Z,7.68
2023-02-13T16:25:13.198Z,5.85
2023-02-13T16:27:58.712Z,7.25
2023-02-13T16:30:34.441Z,6.55
2023-02-13T16:33:16.238Z,7.25
2023-02-13T16:35:44.805Z,5.45
2023-02-13T16:38:31.432Z,7.63
2023-02-13T16:41:00.732Z,5.72
2023-02-13T16:43:38.069Z,7.68
2023-02-13T16:46:17.314Z,5.43
2023-02-13T16:49:01.328Z,8.75
2023-02-13T16:51:33.958Z,7.60
2023-02-13T16:54:04.444Z,5.50
2023-02-13T16:56:49.353Z,6.65
2023-02-13T16:59:21.717Z,7.78
2023-02-13T17:01:48.857Z,6.68
2023-02-13T17:04:25.470Z,7.55
2023-02-13T17:06:54.652Z,6.93
2023-02-13T17:09:21.852Z,8.10
2023-02-13T17:11:53.745Z,6.15
2023-02-13T17:14:20.571Z,5.78
2023-02-13T17:16:48.545Z,9.13
2023-02-13T17:19:15.436Z,8.55
2023-02-13T17:21:42.354Z,5.65
2023-02-13T17:24:17.084Z,8.98
2023-02-13T17:26:43.978Z,6.93
2023-02-13T17:29:10.640Z,7.80
2023-02-13T17:31:37.432Z,8.27
2023-02-13T17:34:05.410Z,8.68
2023-02-13T17:36:32.042Z,6.88
2023-02-13T17:38:58.673Z,8.27
2023-02-13T17:41:25.272Z,7.38
2023-02-13T17:43:51.852Z,8.73
2023-02-13T17:46:18.496Z,8.13
2023-02-13T17:48:45.069Z,8.38
2023-02-13T17:51:14.658Z,8.73
2023-02-13T17:53:41.627Z,8.88
2023-02-13T17:56:08.225Z,5.85
2023-02-13T17:58:34.815Z,10.77
2023-02-13T18:01:01.854Z,9.10
2023-02-13T18:03:28.973Z,8.68
2023-02-13T18:05:55.639Z,8.88
2023-02-13T18:08:22.338Z,9.70
2023-02-13T18:10:49.076Z,8.55
2023-02-13T18:13:15.758Z,8.80
2023-02-13T18:15:44.870Z,10.88
2023-02-13T18:18:15.745Z,9.73
2023-02-13T18:20:42.988Z,10.90
2023-02-13T18:23:09.647Z,10.77
2023-02-13T18:25:36.689Z,7.10
2023-02-13T18:28:03.729Z,10.00
2023-02-13T18:30:30.413Z,9.90
2023-02-13T18:32:59.026Z,10.10
2023-02-13T18:35:26.442Z,10.73
2023-02-13T18:37:53.151Z,10.00
2023-02-13T18:40:19.790Z,9.50
2023-02-13T18:42:46.503Z,11.00
2023-02-13T18:45:13.194Z,11.68
2023-02-13T18:47:39.823Z,11.48
2023-02-13T18:50:07.367Z,11.65
2023-02-13T18:52:35.141Z,12.13
2023-02-13T18:55:01.861Z,11.20
2023-02-13T18:57:28.470Z,11.70
2023-02-13T18:59:55.119Z,12.20
2023-02-13T19:02:21.728Z,11.25
2023-02-13T19:04:48.252Z,10.85
2023-02-13T19:07:14.812Z,11.85
2023-02-13T19:09:41.444Z,11.20
2023-02-13T19:12:08.124Z,11.63
2023-02-13T19:14:35.031Z,10.88
2023-02-13T19:17:01.723Z,9.75
2023-02-13T19:19:28.289Z,8.68
2023-02-13T19:21:54.837Z,10.85
2023-02-13T19:24:21.476Z,12.00
2023-02-13T19:26:48.054Z,9.68
2023-02-13T19:29:14.623Z,6.60
2023-02-13T19:31:41.489Z,10.82
2023-02-13T19:34:08.278Z,10.57
2023-02-13T19:36:35.002Z,9.00
2023-02-13T19:39:04.486Z,10.68
2023-02-13T19:41:31.351Z,10.48
2023-02-13T19:43:58.533Z,11.57
2023-02-13T19:46:34.713Z,10.27
2023-02-13T19:49:01.417Z,10.63
2023-02-13T19:51:30.625Z,9.98
2023-02-13T19:54:00.311Z,10.95
2023-02-13T19:56:28.398Z,11.20
2023-02-13T19:58:55.480Z,10.30
2023-02-13T20:01:23.853Z,11.32
2023-02-13T20:03:51.304Z,12.23
2023-02-13T20:06:32.109Z,11.18
2023-02-13T20:09:00.168Z,11.63
2023-02-13T20:11:26.761Z,11.05
2023-02-13T20:13:58.029Z,11.57
2023-02-13T20:16:24.745Z,11.15
2023-02-13T20:18:51.656Z,11.15
2023-02-13T20:21:20.703Z,9.82
2023-02-13T20:23:51.573Z,11.30
2023-02-13T20:26:19.184Z,11.45
2023-02-13T20:28:46.680Z,11.43
2023-02-13T20:31:16.147Z,12.23
2023-02-13T20:33:43.693Z,11.25
2023-02-13T20:36:13.417Z,10.48
2023-02-13T20:38:40.575Z,11.43
2023-02-13T20:41:15.914Z,11.68
2023-02-13T20:43:42.889Z,10.93
2023-02-13T20:46:10.196Z,10.98
2023-02-13T20:48:37.919Z,11.32
2023-02-13T20:51:06.793Z,10.70
2023-02-13T20:53:33.920Z,11.27
2023-02-13T20:56:18.806Z,12.05
2023-02-13T20:58:48.575Z,10.55
2023-02-13T21:01:41.590Z,11.55
2023-02-13T21:04:11.274Z,11.52
2023-02-13T21:06:39.027Z,11.82
2023-02-13T21:09:08.117Z,12.20
2023-02-13T21:11:35.680Z,10.57
2023-02-13T21:14:02.772Z,10.95
2023-02-13T21:16:35.451Z,12.18
2023-02-13T21:19:07.967Z,11.73
2023-02-13T21:21:36.012Z,10.77
2023-02-13T21:24:08.529Z,11.45
2023-02-13T21:26:35.660Z,11.52
2023-02-13T21:29:02.455Z,11.63
2023-02-13T21:31:32.868Z,11.70
2023-02-13T21:34:03.107Z,11.88
2023-02-13T21:36:30.483Z,11.07
2023-02-13T21:38:57.601Z,11.30
2023-02-13T21:41:24.752Z,11.23
2023-02-13T21:43:51.976Z,12.70
2023-02-13T21:46:22.089Z,11.85
2023-02-13T21:48:56.749Z,11.75
2023-02-13T21:51:25.662Z,11.88
2023-02-13T21:53:53.162Z,12.20
2023-02-13T21:56:25.503Z,12.38
2023-02-13T21:58:53.587Z,12.05
2023-02-13T22:01:26.916Z,11.38
2023-02-13T22:04:00.973Z,9.57
2023-02-13T22:06:29.290Z,10.95
2023-02-13T22:09:01.391Z,12.45
2023-02-13T22:11:28.924Z,11.90
2023-02-13T22:14:02.535Z,11.68
2023-02-13T22:16:31.160Z,12.02
2023-02-13T22:18:58.424Z,12.35
2023-02-13T22:21:27.617Z,12.93
2023-02-13T22:23:54.889Z,11.57
2023-02-13T22:26:24.863Z,12.60
2023-02-13T22:28:52.384Z,12.55
2023-02-13T22:31:20.061Z,12.38
2023-02-13T22:33:52.313Z,12.50
2023-02-13T22:36:22.297Z,12.23
2023-02-13T22:38:50.551Z,12.57
2023-02-13T22:41:20.256Z,11.75
2023-02-13T22:43:46.917Z,12.93
2023-02-13T22:46:19.617Z,12.77
2023-02-13T22:48:46.976Z,12.95
2023-02-13T22:51:19.818Z,13.13
2023-02-13T22:53:48.385Z,12.25
2023-02-13T22:56:15.655Z,14.75
2023-02-13T22:58:42.278Z,13.05
2023-02-13T23:01:14.384Z,12.23
2023-02-13T23:03:41.668Z,11.88
2023-02-13T23:06:12.985Z,12.38
2023-02-13T23:08:39.892Z,12.68
2023-02-13T23:11:33.324Z,12.55
2023-02-13T23:14:00.548Z,13.13
2023-02-13T23:16:27.721Z,17.20
2023-02-13T23:18:58.182Z,13.98
2023-02-13T23:21:25.732Z,13.15
2023-02-13T23:23:52.581Z,13.60
2023-02-13T23:26:21.874Z,14.45
2023-02-13T23:28:48.471Z,13.52
2023-02-13T23:31:16.591Z,13.73
2023-02-13T23:33:43.287Z,12.23
2023-02-13T23:36:09.922Z,13.32
2023-02-13T23:38:36.489Z,12.93
2023-02-13T23:41:08.501Z,13.73
2023-02-13T23:43:35.192Z,12.82
2023-02-13T23:46:07.880Z,13.50
2023-02-13T23:48:34.603Z,13.15
2023-02-13T23:51:01.698Z,13.10
2023-02-13T23:53:28.520Z,12.18
2023-02-13T23:55:55.154Z,12.52
2023-02-13T23:58:21.956Z,12.23
